sensor_id;sensor_type;location;lat;lon;timestamp;temperature;humidity
74968;SHT30;63523;51.880;12.630;2023-03-19T00:01:20;9.35;69.38
74968;SHT30;63523;51.880;12.630;2023-03-19T00:03:45;9.18;69.52
74968;SHT30;63523;51.880;12.630;2023-03-19T00:06:11;9.32;69.24
74968;SHT30;63523;51.880;12.630;2023-03-19T00:08:37;9.26;69.60
74968;SHT30;63523;51.880;12.630;2023-03-19T00:11:10;9.31;69.10
74968;SHT30;63523;51.880;12.630;2023-03-19T00:13:36;9.36;69.15
74968;SHT30;63523;51.880;12.630;2023-03-19T00:16:02;9.38;68.95
74968;SHT30;63523;51.880;12.630;2023-03-19T00:18:28;9.25;69.65
74968;SHT30;63523;51.880;12.630;2023-03-19T00:20:54;9.24;69.43
74968;SHT30;63523;51.880;12.630;2023-03-19T00:23:20;9.10;70.02
74968;SHT30;63523;51.880;12.630;2023-03-19T00:25:46;9.12;69.67
74968;SHT30;63523;51.880;12.630;2023-03-19T00:28:11;9.00;70.17
74968;SHT30;63523;51.880;12.630;2023-03-19T00:30:37;8.94;70.30
74968;SHT30;63523;51.880;12.630;2023-03-19T00:33:02;8.83;70.82
74968;SHT30;63523;51.880;12.630;2023-03-19T00:35:28;8.77;70.91
74968;SHT30;63523;51.880;12.630;2023-03-19T00:37:53;8.74;71.11
74968;SHT30;63523;51.880;12.630;2023-03-19T00:40:19;8.74;71.31
74968;SHT30;63523;51.880;12.630;2023-03-19T00:42:45;8.73;71.18
74968;SHT30;63523;51.880;12.630;2023-03-19T00:45:11;8.63;71.50
74968;SHT30;63523;51.880;12.630;2023-03-19T00:47:37;8.71;71.24
74968;SHT30;63523;51.880;12.630;2023-03-19T00:50:03;8.64;71.43
74968;SHT30;63523;51.880;12.630;2023-03-19T00:52:29;8.67;71.49
74968;SHT30;63523;51.880;12.630;2023-03-19T00:54:55;8.64;71.38
74968;SHT30;63523;51.880;12.630;2023-03-19T00:57:21;8.63;71.36
74968;SHT30;63523;51.880;12.630;2023-03-19T00:59:47;8.70;71.22
74968;SHT30;63523;51.880;12.630;2023-03-19T01:02:12;8.83;71.12
74968;SHT30;63523;51.880;12.630;2023-03-19T01:04:38;9.05;69.77
74968;SHT30;63523;51.880;12.630;2023-03-19T01:07:03;8.94;70.27
74968;SHT30;63523;51.880;12.630;2023-03-19T01:09:29;8.97;70.28
74968;SHT30;63523;51.880;12.630;2023-03-19T01:11:55;9.01;69.72
74968;SHT30;63523;51.880;12.630;2023-03-19T01:14:23;8.97;70.39
74968;SHT30;63523;51.880;12.630;2023-03-19T01:16:49;9.08;69.71
74968;SHT30;63523;51.880;12.630;2023-03-19T01:19:15;9.05;69.59
74968;SHT30;63523;51.880;12.630;2023-03-19T01:21:40;8.88;70.15
74968;SHT30;63523;51.880;12.630;2023-03-19T01:24:10;8.76;70.49
74968;SHT30;63523;51.880;12.630;2023-03-19T01:26:36;8.81;70.33
74968;SHT30;63523;51.880;12.630;2023-03-19T01:29:01;8.71;70.56
74968;SHT30;63523;51.880;12.630;2023-03-19T01:31:27;8.71;70.60
74968;SHT30;63523;51.880;12.630;2023-03-19T01:33:52;8.63;70.86
74968;SHT30;63523;51.880;12.630;2023-03-19T01:36:18;8.70;70.72
74968;SHT30;63523;51.880;12.630;2023-03-19T01:38:43;8.62;70.80
74968;SHT30;63523;51.880;12.630;2023-03-19T01:41:09;8.70;70.69
74968;SHT30;63523;51.880;12.630;2023-03-19T01:43:34;8.79;70.16
74968;SHT30;63523;51.880;12.630;2023-03-19T01:48:43;8.81;70.14
74968;SHT30;63523;51.880;12.630;2023-03-19T01:51:14;8.98;69.79
74968;SHT30;63523;51.880;12.630;2023-03-19T01:53:44;8.96;69.82
74968;SHT30;63523;51.880;12.630;2023-03-19T01:56:16;8.90;70.10
74968;SHT30;63523;51.880;12.630;2023-03-19T01:58:45;8.83;70.15
74968;SHT30;63523;51.880;12.630;2023-03-19T02:01:12;8.80;70.32
74968;SHT30;63523;51.880;12.630;2023-03-19T02:03:38;8.96;69.50
74968;SHT30;63523;51.880;12.630;2023-03-19T02:06:04;8.91;69.68
74968;SHT30;63523;51.880;12.630;2023-03-19T02:08:31;8.87;69.88
74968;SHT30;63523;51.880;12.630;2023-03-19T02:10:57;8.83;70.16
74968;SHT30;63523;51.880;12.630;2023-03-19T02:13:25;8.81;70.31
74968;SHT30;63523;51.880;12.630;2023-03-19T02:15:52;8.74;70.35
74968;SHT30;63523;51.880;12.630;2023-03-19T02:18:17;8.70;70.60
74968;SHT30;63523;51.880;12.630;2023-03-19T02:20:57;8.69;70.87
74968;SHT30;63523;51.880;12.630;2023-03-19T02:23:33;8.73;70.86
74968;SHT30;63523;51.880;12.630;2023-03-19T02:28:33;8.76;70.85
74968;SHT30;63523;51.880;12.630;2023-03-19T02:30:58;8.69;70.58
74968;SHT30;63523;51.880;12.630;2023-03-19T02:33:24;8.71;70.65
74968;SHT30;63523;51.880;12.630;2023-03-19T02:35:51;8.74;70.24
74968;SHT30;63523;51.880;12.630;2023-03-19T02:38:18;8.69;70.46
74968;SHT30;63523;51.880;12.630;2023-03-19T02:40:59;8.67;70.71
74968;SHT30;63523;51.880;12.630;2023-03-19T02:43:25;8.73;70.50
74968;SHT30;63523;51.880;12.630;2023-03-19T02:45:51;8.73;70.55
74968;SHT30;63523;51.880;12.630;2023-03-19T02:48:17;8.69;70.68
74968;SHT30;63523;51.880;12.630;2023-03-19T02:50:43;8.80;70.51
74968;SHT30;63523;51.880;12.630;2023-03-19T02:53:09;8.77;69.94
74968;SHT30;63523;51.880;12.630;2023-03-19T02:55:34;8.76;70.42
74968;SHT30;63523;51.880;12.630;2023-03-19T02:58:01;8.73;70.79
74968;SHT30;63523;51.880;12.630;2023-03-19T03:00:27;8.71;70.73
74968;SHT30;63523;51.880;12.630;2023-03-19T03:02:54;8.73;70.63
74968;SHT30;63523;51.880;12.630;2023-03-19T03:05:20;8.71;70.98
74968;SHT30;63523;51.880;12.630;2023-03-19T03:07:46;8.73;71.08
74968;SHT30;63523;51.880;12.630;2023-03-19T03:10:12;8.77;70.29
74968;SHT30;63523;51.880;12.630;2023-03-19T03:12:37;8.76;70.64
74968;SHT30;63523;51.880;12.630;2023-03-19T03:15:05;8.73;71.05
74968;SHT30;63523;51.880;12.630;2023-03-19T03:17:30;8.69;71.26
74968;SHT30;63523;51.880;12.630;2023-03-19T03:19:56;8.70;71.40
74968;SHT30;63523;51.880;12.630;2023-03-19T03:22:21;8.67;71.43
74968;SHT30;63523;51.880;12.630;2023-03-19T03:24:47;8.67;71.40
74968;SHT30;63523;51.880;12.630;2023-03-19T03:27:12;8.74;71.24
74968;SHT30;63523;51.880;12.630;2023-03-19T03:29:38;8.74;70.66
74968;SHT30;63523;51.880;12.630;2023-03-19T03:32:04;8.76;70.55
74968;SHT30;63523;51.880;12.630;2023-03-19T03:34:30;8.76;70.32
74968;SHT30;63523;51.880;12.630;2023-03-19T03:36:56;8.70;70.89
74968;SHT30;63523;51.880;12.630;2023-03-19T03:39:21;8.69;71.25
74968;SHT30;63523;51.880;12.630;2023-03-19T03:41:47;8.63;71.60
74968;SHT30;63523;51.880;12.630;2023-03-19T03:44:12;8.54;71.49
74968;SHT30;63523;51.880;12.630;2023-03-19T03:46:38;8.46;71.95
74968;SHT30;63523;51.880;12.630;2023-03-19T03:49:04;8.41;72.40
74968;SHT30;63523;51.880;12.630;2023-03-19T03:51:29;8.29;72.75
74968;SHT30;63523;51.880;12.630;2023-03-19T03:53:55;8.36;72.65
74968;SHT30;63523;51.880;12.630;2023-03-19T03:56:20;8.31;72.69
74968;SHT30;63523;51.880;12.630;2023-03-19T03:58:46;8.24;73.60
74968;SHT30;63523;51.880;12.630;2023-03-19T04:01:15;8.16;74.33
74968;SHT30;63523;51.880;12.630;2023-03-19T04:03:41;8.22;74.59
74968;SHT30;63523;51.880;12.630;2023-03-19T04:06:12;8.18;74.65
74968;SHT30;63523;51.880;12.630;2023-03-19T04:08:38;8.05;75.03
74968;SHT30;63523;51.880;12.630;2023-03-19T04:11:07;8.04;75.51
74968;SHT30;63523;51.880;12.630;2023-03-19T04:13:33;7.91;76.47
74968;SHT30;63523;51.880;12.630;2023-03-19T04:16:03;7.95;76.37
74968;SHT30;63523;51.880;12.630;2023-03-19T04:18:29;7.99;76.97
74968;SHT30;63523;51.880;12.630;2023-03-19T04:20:54;7.94;76.60
74968;SHT30;63523;51.880;12.630;2023-03-19T04:23:21;7.91;77.54
74968;SHT30;63523;51.880;12.630;2023-03-19T04:25:47;7.99;76.35
74968;SHT30;63523;51.880;12.630;2023-03-19T04:28:12;8.04;75.94
74968;SHT30;63523;51.880;12.630;2023-03-19T04:30:38;8.02;76.15
74968;SHT30;63523;51.880;12.630;2023-03-19T04:33:03;7.97;77.20
74968;SHT30;63523;51.880;12.630;2023-03-19T04:35:29;8.01;76.71
74968;SHT30;63523;51.880;12.630;2023-03-19T04:37:55;8.05;76.69
74968;SHT30;63523;51.880;12.630;2023-03-19T04:40:21;8.12;75.81
74968;SHT30;63523;51.880;12.630;2023-03-19T04:42:46;8.11;75.21
74968;SHT30;63523;51.880;12.630;2023-03-19T04:45:12;8.15;75.13
74968;SHT30;63523;51.880;12.630;2023-03-19T04:47:37;8.14;75.53
74968;SHT30;63523;51.880;12.630;2023-03-19T04:50:04;8.18;75.32
74968;SHT30;63523;51.880;12.630;2023-03-19T04:52:30;8.20;75.58
74968;SHT30;63523;51.880;12.630;2023-03-19T04:54:55;8.21;74.88
74968;SHT30;63523;51.880;12.630;2023-03-19T04:57:21;8.28;75.14
74968;SHT30;63523;51.880;12.630;2023-03-19T04:59:46;8.25;75.10
74968;SHT30;63523;51.880;12.630;2023-03-19T05:02:12;8.24;74.48
74968;SHT30;63523;51.880;12.630;2023-03-19T05:04:37;8.28;74.67
74968;SHT30;63523;51.880;12.630;2023-03-19T05:07:03;8.38;74.73
74968;SHT30;63523;51.880;12.630;2023-03-19T05:09:29;8.54;75.06
74968;SHT30;63523;51.880;12.630;2023-03-19T05:11:55;8.57;74.55
74968;SHT30;63523;51.880;12.630;2023-03-19T05:14:21;8.52;74.15
74968;SHT30;63523;51.880;12.630;2023-03-19T05:16:47;8.46;73.57
74968;SHT30;63523;51.880;12.630;2023-03-19T05:19:12;8.45;74.28
74968;SHT30;63523;51.880;12.630;2023-03-19T05:21:38;8.52;73.78
74968;SHT30;63523;51.880;12.630;2023-03-19T05:24:05;8.56;72.76
74968;SHT30;63523;51.880;12.630;2023-03-19T05:26:31;8.60;71.62
74968;SHT30;63523;51.880;12.630;2023-03-19T05:28:56;8.64;71.61
74968;SHT30;63523;51.880;12.630;2023-03-19T05:31:22;8.66;71.62
74968;SHT30;63523;51.880;12.630;2023-03-19T05:33:48;8.70;71.47
74968;SHT30;63523;51.880;12.630;2023-03-19T05:36:13;8.73;71.63
74968;SHT30;63523;51.880;12.630;2023-03-19T05:38:39;8.80;72.12
74968;SHT30;63523;51.880;12.630;2023-03-19T05:41:06;8.98;71.22
74968;SHT30;63523;51.880;12.630;2023-03-19T05:43:31;8.92;70.97
74968;SHT30;63523;51.880;12.630;2023-03-19T05:45:57;8.88;71.51
74968;SHT30;63523;51.880;12.630;2023-03-19T05:48:23;8.83;71.74
74968;SHT30;63523;51.880;12.630;2023-03-19T05:50:50;8.79;72.11
74968;SHT30;63523;51.880;12.630;2023-03-19T05:53:17;8.73;72.97
74968;SHT30;63523;51.880;12.630;2023-03-19T05:55:42;8.74;72.88
74968;SHT30;63523;51.880;12.630;2023-03-19T05:58:11;8.77;73.73
74968;SHT30;63523;51.880;12.630;2023-03-19T06:00:36;8.79;73.91
74968;SHT30;63523;51.880;12.630;2023-03-19T06:03:02;8.84;73.73
74968;SHT30;63523;51.880;12.630;2023-03-19T06:05:28;8.84;73.53
74968;SHT30;63523;51.880;12.630;2023-03-19T06:07:53;8.96;74.20
74968;SHT30;63523;51.880;12.630;2023-03-19T06:10:19;8.96;74.49
74968;SHT30;63523;51.880;12.630;2023-03-19T06:12:44;8.92;74.90
74968;SHT30;63523;51.880;12.630;2023-03-19T06:15:10;8.94;74.16
74968;SHT30;63523;51.880;12.630;2023-03-19T06:17:36;8.96;73.46
74968;SHT30;63523;51.880;12.630;2023-03-19T06:20:02;8.97;73.10
74968;SHT30;63523;51.880;12.630;2023-03-19T06:22:27;9.01;72.34
74968;SHT30;63523;51.880;12.630;2023-03-19T06:24:53;9.21;71.26
74968;SHT30;63523;51.880;12.630;2023-03-19T06:27:21;9.12;70.71
74968;SHT30;63523;51.880;12.630;2023-03-19T06:29:47;9.11;70.67
74968;SHT30;63523;51.880;12.630;2023-03-19T06:32:12;9.12;70.19
74968;SHT30;63523;51.880;12.630;2023-03-19T06:34:38;9.28;69.31
74968;SHT30;63523;51.880;12.630;2023-03-19T06:37:03;9.26;70.14
74968;SHT30;63523;51.880;12.630;2023-03-19T06:39:29;9.28;70.99
74968;SHT30;63523;51.880;12.630;2023-03-19T06:41:54;9.31;71.15
74968;SHT30;63523;51.880;12.630;2023-03-19T06:44:20;9.24;71.13
74968;SHT30;63523;51.880;12.630;2023-03-19T06:46:46;9.21;71.78
74968;SHT30;63523;51.880;12.630;2023-03-19T06:49:11;9.18;71.37
74968;SHT30;63523;51.880;12.630;2023-03-19T06:51:37;9.18;71.76
74968;SHT30;63523;51.880;12.630;2023-03-19T06:54:02;9.12;71.92
74968;SHT30;63523;51.880;12.630;2023-03-19T06:56:28;9.10;72.75
74968;SHT30;63523;51.880;12.630;2023-03-19T06:58:54;9.12;73.23
74968;SHT30;63523;51.880;12.630;2023-03-19T07:01:19;9.14;73.72
74968;SHT30;63523;51.880;12.630;2023-03-19T07:03:46;9.29;71.93
74968;SHT30;63523;51.880;12.630;2023-03-19T07:06:11;9.39;72.34
74968;SHT30;63523;51.880;12.630;2023-03-19T07:08:37;9.49;72.01
74968;SHT30;63523;51.880;12.630;2023-03-19T07:11:06;9.56;71.33
74968;SHT30;63523;51.880;12.630;2023-03-19T07:13:32;9.74;71.38
74968;SHT30;63523;51.880;12.630;2023-03-19T07:15:58;9.98;69.64
74968;SHT30;63523;51.880;12.630;2023-03-19T07:18:24;10.01;70.03
74968;SHT30;63523;51.880;12.630;2023-03-19T07:20:50;10.04;68.86
74968;SHT30;63523;51.880;12.630;2023-03-19T07:23:17;10.09;70.50
74968;SHT30;63523;51.880;12.630;2023-03-19T07:25:43;10.14;69.23
74968;SHT30;63523;51.880;12.630;2023-03-19T07:28:08;10.21;69.22
74968;SHT30;63523;51.880;12.630;2023-03-19T07:30:34;10.36;67.95
74968;SHT30;63523;51.880;12.630;2023-03-19T07:33:00;10.35;68.13
74968;SHT30;63523;51.880;12.630;2023-03-19T07:35:25;10.33;67.80
74968;SHT30;63523;51.880;12.630;2023-03-19T07:37:51;10.35;68.06
74968;SHT30;63523;51.880;12.630;2023-03-19T07:40:17;10.49;67.79
74968;SHT30;63523;51.880;12.630;2023-03-19T07:42:42;10.52;68.06
74968;SHT30;63523;51.880;12.630;2023-03-19T07:45:08;10.64;67.36
74968;SHT30;63523;51.880;12.630;2023-03-19T07:47:33;10.73;67.19
74968;SHT30;63523;51.880;12.630;2023-03-19T07:49:59;10.83;67.44
74968;SHT30;63523;51.880;12.630;2023-03-19T07:52:25;10.81;67.55
74968;SHT30;63523;51.880;12.630;2023-03-19T07:54:51;10.87;66.92
74968;SHT30;63523;51.880;12.630;2023-03-19T07:57:17;10.93;67.55
74968;SHT30;63523;51.880;12.630;2023-03-19T07:59:43;11.12;66.48
74968;SHT30;63523;51.880;12.630;2023-03-19T08:02:12;11.22;66.13
74968;SHT30;63523;51.880;12.630;2023-03-19T08:04:39;11.32;65.14
74968;SHT30;63523;51.880;12.630;2023-03-19T08:07:05;11.26;66.07
74968;SHT30;63523;51.880;12.630;2023-03-19T08:09:31;11.32;67.01
74968;SHT30;63523;51.880;12.630;2023-03-19T08:11:57;11.46;65.71
74968;SHT30;63523;51.880;12.630;2023-03-19T08:14:22;11.65;65.52
74968;SHT30;63523;51.880;12.630;2023-03-19T08:16:48;11.86;64.75
74968;SHT30;63523;51.880;12.630;2023-03-19T08:19:14;12.05;64.29
74968;SHT30;63523;51.880;12.630;2023-03-19T08:21:39;12.11;63.73
74968;SHT30;63523;51.880;12.630;2023-03-19T08:24:05;12.10;63.47
74968;SHT30;63523;51.880;12.630;2023-03-19T08:26:30;12.01;64.41
74968;SHT30;63523;51.880;12.630;2023-03-19T08:28:57;11.98;65.35
74968;SHT30;63523;51.880;12.630;2023-03-19T08:31:23;12.08;65.62
74968;SHT30;63523;51.880;12.630;2023-03-19T08:33:49;12.29;66.16
74968;SHT30;63523;51.880;12.630;2023-03-19T08:36:15;12.60;65.16
74968;SHT30;63523;51.880;12.630;2023-03-19T08:38:41;12.94;63.55
74968;SHT30;63523;51.880;12.630;2023-03-19T08:41:07;13.22;62.56
74968;SHT30;63523;51.880;12.630;2023-03-19T08:43:34;13.38;62.51
74968;SHT30;63523;51.880;12.630;2023-03-19T08:46:01;13.59;62.29
74968;SHT30;63523;51.880;12.630;2023-03-19T08:48:28;13.74;62.58
74968;SHT30;63523;51.880;12.630;2023-03-19T08:50:59;13.98;61.86
74968;SHT30;63523;51.880;12.630;2023-03-19T08:53:27;14.00;59.85
74968;SHT30;63523;51.880;12.630;2023-03-19T08:55:57;14.14;60.82
74968;SHT30;63523;51.880;12.630;2023-03-19T08:58:23;14.31;60.29
74968;SHT30;63523;51.880;12.630;2023-03-19T09:00:49;14.42;58.84
74968;SHT30;63523;51.880;12.630;2023-03-19T09:03:16;14.36;59.28
74968;SHT30;63523;51.880;12.630;2023-03-19T09:05:42;14.48;58.77
74968;SHT30;63523;51.880;12.630;2023-03-19T09:08:08;14.57;59.11
74968;SHT30;63523;51.880;12.630;2023-03-19T09:10:34;14.50;59.37
74968;SHT30;63523;51.880;12.630;2023-03-19T09:13:00;14.55;59.13
74968;SHT30;63523;51.880;12.630;2023-03-19T09:15:26;14.49;59.08
74968;SHT30;63523;51.880;12.630;2023-03-19T09:17:51;14.38;58.94
74968;SHT30;63523;51.880;12.630;2023-03-19T09:20:17;14.35;59.43
74968;SHT30;63523;51.880;12.630;2023-03-19T09:22:43;14.43;59.33
74968;SHT30;63523;51.880;12.630;2023-03-19T09:25:09;14.52;60.19
74968;SHT30;63523;51.880;12.630;2023-03-19T09:27:35;14.69;59.55
74968;SHT30;63523;51.880;12.630;2023-03-19T09:30:00;14.93;59.59
74968;SHT30;63523;51.880;12.630;2023-03-19T09:32:26;15.04;58.33
74968;SHT30;63523;51.880;12.630;2023-03-19T09:34:51;15.01;60.57
74968;SHT30;63523;51.880;12.630;2023-03-19T09:37:17;15.12;56.07
74968;SHT30;63523;51.880;12.630;2023-03-19T09:39:43;15.46;56.36
74968;SHT30;63523;51.880;12.630;2023-03-19T09:42:44;15.56;55.28
74968;SHT30;63523;51.880;12.630;2023-03-19T09:45:16;15.82;55.22
74968;SHT30;63523;51.880;12.630;2023-03-19T09:47:44;15.93;53.74
74968;SHT30;63523;51.880;12.630;2023-03-19T09:50:17;16.17;52.76
74968;SHT30;63523;51.880;12.630;2023-03-19T09:52:57;16.36;51.82
74968;SHT30;63523;51.880;12.630;2023-03-19T09:55:35;16.36;51.82
74968;SHT30;63523;51.880;12.630;2023-03-19T09:58:11;16.33;53.14
74968;SHT30;63523;51.880;12.630;2023-03-19T10:00:39;16.59;52.27
74968;SHT30;63523;51.880;12.630;2023-03-19T10:17:02;16.07;50.34
74968;SHT30;63523;51.880;12.630;2023-03-19T10:19:46;16.02;50.66
74968;SHT30;63523;51.880;12.630;2023-03-19T10:22:22;16.10;51.24
74968;SHT30;63523;51.880;12.630;2023-03-19T10:24:52;16.19;50.80
74968;SHT30;63523;51.880;12.630;2023-03-19T10:27:20;15.93;51.13
74968;SHT30;63523;51.880;12.630;2023-03-19T10:29:46;15.93;51.08
74968;SHT30;63523;51.880;12.630;2023-03-19T10:34:49;15.82;50.09
74968;SHT30;63523;51.880;12.630;2023-03-19T10:37:27;15.71;50.87
74968;SHT30;63523;51.880;12.630;2023-03-19T10:39:57;15.98;50.38
74968;SHT30;63523;51.880;12.630;2023-03-19T10:42:48;15.98;52.20
74968;SHT30;63523;51.880;12.630;2023-03-19T10:45:44;16.18;51.12
74968;SHT30;63523;51.880;12.630;2023-03-19T10:48:17;16.55;51.29
74968;SHT30;63523;51.880;12.630;2023-03-19T10:50:52;16.83;49.68
74968;SHT30;63523;51.880;12.630;2023-03-19T10:56:04;17.04;49.06
74968;SHT30;63523;51.880;12.630;2023-03-19T10:58:32;17.12;48.64
74968;SHT30;63523;51.880;12.630;2023-03-19T11:03:40;17.17;47.65
74968;SHT30;63523;51.880;12.630;2023-03-19T11:06:32;17.08;48.96
74968;SHT30;63523;51.880;12.630;2023-03-19T11:11:41;17.11;50.16
74968;SHT30;63523;51.880;12.630;2023-03-19T11:16:54;17.46;49.75
74968;SHT30;63523;51.880;12.630;2023-03-19T11:19:26;17.62;48.21
74968;SHT30;63523;51.880;12.630;2023-03-19T11:22:02;17.65;47.72
74968;SHT30;63523;51.880;12.630;2023-03-19T11:24:41;17.50;46.87
74968;SHT30;63523;51.880;12.630;2023-03-19T11:27:08;17.46;47.41
74968;SHT30;63523;51.880;12.630;2023-03-19T11:29:41;17.49;46.98
74968;SHT30;63523;51.880;12.630;2023-03-19T11:34:57;17.57;47.92
74968;SHT30;63523;51.880;12.630;2023-03-19T11:37:54;17.72;46.24
74968;SHT30;63523;51.880;12.630;2023-03-19T11:45:27;17.79;46.06
74968;SHT30;63523;51.880;12.630;2023-03-19T11:50:49;17.79;46.98
74968;SHT30;63523;51.880;12.630;2023-03-19T11:53:37;17.86;47.57
74968;SHT30;63523;51.880;12.630;2023-03-19T11:59:16;18.14;47.92
74968;SHT30;63523;51.880;12.630;2023-03-19T12:01:58;18.28;46.47
74968;SHT30;63523;51.880;12.630;2023-03-19T12:05:12;18.48;46.34
74968;SHT30;63523;51.880;12.630;2023-03-19T12:07:54;18.56;46.73
74968;SHT30;63523;51.880;12.630;2023-03-19T12:10:27;18.48;46.87
74968;SHT30;63523;51.880;12.630;2023-03-19T12:29:50;18.64;46.50
74968;SHT30;63523;51.880;12.630;2023-03-19T12:32:29;18.57;47.27
74968;SHT30;63523;51.880;12.630;2023-03-19T12:35:02;18.59;48.95
74968;SHT30;63523;51.880;12.630;2023-03-19T12:37:39;18.63;49.44
74968;SHT30;63523;51.880;12.630;2023-03-19T12:40:16;18.73;48.89
74968;SHT30;63523;51.880;12.630;2023-03-19T12:42:47;18.84;48.72
74968;SHT30;63523;51.880;12.630;2023-03-19T12:45:31;18.96;47.94
74968;SHT30;63523;51.880;12.630;2023-03-19T12:48:12;19.06;47.21
74968;SHT30;63523;51.880;12.630;2023-03-19T12:50:42;19.06;47.75
74968;SHT30;63523;51.880;12.630;2023-03-19T12:53:25;19.07;47.07
74968;SHT30;63523;51.880;12.630;2023-03-19T12:55:56;18.97;47.13
74968;SHT30;63523;51.880;12.630;2023-03-19T12:59:00;18.90;47.17
74968;SHT30;63523;51.880;12.630;2023-03-19T13:01:31;18.84;48.40
74968;SHT30;63523;51.880;12.630;2023-03-19T13:04:12;18.81;48.60
74968;SHT30;63523;51.880;12.630;2023-03-19T13:06:44;18.73;49.43
74968;SHT30;63523;51.880;12.630;2023-03-19T13:12:10;18.62;51.47
74968;SHT30;63523;51.880;12.630;2023-03-19T13:19:48;18.44;51.46
74968;SHT30;63523;51.880;12.630;2023-03-19T13:22:31;18.32;51.31
74968;SHT30;63523;51.880;12.630;2023-03-19T13:24:59;18.36;51.03
74968;SHT30;63523;51.880;12.630;2023-03-19T13:27:31;18.42;50.26
74968;SHT30;63523;51.880;12.630;2023-03-19T13:32:36;18.32;51.62
74968;SHT30;63523;51.880;12.630;2023-03-19T13:35:30;18.45;50.84
74968;SHT30;63523;51.880;12.630;2023-03-19T13:40:45;18.64;50.85
74968;SHT30;63523;51.880;12.630;2023-03-19T13:46:22;18.51;52.18
74968;SHT30;63523;51.880;12.630;2023-03-19T13:48:50;18.27;51.63
74968;SHT30;63523;51.880;12.630;2023-03-19T13:59:40;17.63;55.18
74968;SHT30;63523;51.880;12.630;2023-03-19T14:05:01;17.74;53.07
74968;SHT30;63523;51.880;12.630;2023-03-19T14:07:33;17.84;54.58
74968;SHT30;63523;51.880;12.630;2023-03-19T14:10:05;17.83;53.41
74968;SHT30;63523;51.880;12.630;2023-03-19T14:12:40;17.77;53.97
74968;SHT30;63523;51.880;12.630;2023-03-19T14:17:38;17.77;54.23
74968;SHT30;63523;51.880;12.630;2023-03-19T14:28:54;17.34;56.25
74968;SHT30;63523;51.880;12.630;2023-03-19T14:31:39;17.06;57.21
74968;SHT30;63523;51.880;12.630;2023-03-19T14:34:17;17.01;57.09
74968;SHT30;63523;51.880;12.630;2023-03-19T14:37:01;16.83;56.55
74968;SHT30;63523;51.880;12.630;2023-03-19T14:39:32;16.60;58.79
74968;SHT30;63523;51.880;12.630;2023-03-19T14:42:03;16.45;60.36
74968;SHT30;63523;51.880;12.630;2023-03-19T14:53:16;15.86;66.07
74968;SHT30;63523;51.880;12.630;2023-03-19T14:55:51;15.80;66.56
74968;SHT30;63523;51.880;12.630;2023-03-19T14:58:20;15.67;67.02
74968;SHT30;63523;51.880;12.630;2023-03-19T15:00:51;15.62;68.02
74968;SHT30;63523;51.880;12.630;2023-03-19T15:05:46;15.53;68.04
74968;SHT30;63523;51.880;12.630;2023-03-19T15:08:16;15.39;69.16
74968;SHT30;63523;51.880;12.630;2023-03-19T15:17:18;14.93;71.08
74968;SHT30;63523;51.880;12.630;2023-03-19T15:19:45;14.73;71.79
74968;SHT30;63523;51.880;12.630;2023-03-19T15:24:39;14.53;73.55
74968;SHT30;63523;51.880;12.630;2023-03-19T15:27:21;14.39;74.59
74968;SHT30;63523;51.880;12.630;2023-03-19T15:29:47;14.25;74.71
74968;SHT30;63523;51.880;12.630;2023-03-19T15:32:12;14.20;75.08
74968;SHT30;63523;51.880;12.630;2023-03-19T15:34:57;14.10;77.05
74968;SHT30;63523;51.880;12.630;2023-03-19T15:37:23;13.97;76.89
74968;SHT30;63523;51.880;12.630;2023-03-19T15:39:50;13.90;77.18
74968;SHT30;63523;51.880;12.630;2023-03-19T15:42:20;13.90;76.39
74968;SHT30;63523;51.880;12.630;2023-03-19T15:44:49;13.87;76.24
74968;SHT30;63523;51.880;12.630;2023-03-19T15:47:23;13.76;76.95
74968;SHT30;63523;51.880;12.630;2023-03-19T15:50:13;13.73;77.47
74968;SHT30;63523;51.880;12.630;2023-03-19T15:52:42;13.63;77.73
74968;SHT30;63523;51.880;12.630;2023-03-19T15:55:12;13.59;77.69
74968;SHT30;63523;51.880;12.630;2023-03-19T15:57:38;13.53;78.06
74968;SHT30;63523;51.880;12.630;2023-03-19T16:00:07;13.46;78.46
74968;SHT30;63523;51.880;12.630;2023-03-19T16:02:41;13.45;79.06
74968;SHT30;63523;51.880;12.630;2023-03-19T16:05:22;13.43;79.69
74968;SHT30;63523;51.880;12.630;2023-03-19T16:07:53;13.39;80.05
74968;SHT30;63523;51.880;12.630;2023-03-19T16:13:00;13.35;80.84
74968;SHT30;63523;51.880;12.630;2023-03-19T16:15:42;13.31;80.69
74968;SHT30;63523;51.880;12.630;2023-03-19T16:20:41;13.31;80.75
74968;SHT30;63523;51.880;12.630;2023-03-19T16:23:13;13.28;81.25
74968;SHT30;63523;51.880;12.630;2023-03-19T16:25:43;13.22;80.80
74968;SHT30;63523;51.880;12.630;2023-03-19T16:28:19;13.18;80.29
74968;SHT30;63523;51.880;12.630;2023-03-19T16:30:49;13.18;80.85
74968;SHT30;63523;51.880;12.630;2023-03-19T16:33:15;13.18;80.79
74968;SHT30;63523;51.880;12.630;2023-03-19T16:35:41;13.16;81.55
74968;SHT30;63523;51.880;12.630;2023-03-19T16:38:21;13.11;81.66
74968;SHT30;63523;51.880;12.630;2023-03-19T16:40:49;13.10;81.48
74968;SHT30;63523;51.880;12.630;2023-03-19T16:43:34;13.04;81.52
74968;SHT30;63523;51.880;12.630;2023-03-19T16:46:05;13.01;81.61
74968;SHT30;63523;51.880;12.630;2023-03-19T16:48:32;12.95;81.02
74968;SHT30;63523;51.880;12.630;2023-03-19T16:50:58;12.93;81.50
74968;SHT30;63523;51.880;12.630;2023-03-19T16:53:26;12.87;81.61
74968;SHT30;63523;51.880;12.630;2023-03-19T16:55:54;12.87;81.91
74968;SHT30;63523;51.880;12.630;2023-03-19T16:58:30;12.84;82.11
74968;SHT30;63523;51.880;12.630;2023-03-19T17:00:57;12.83;82.43
74968;SHT30;63523;51.880;12.630;2023-03-19T17:03:23;12.80;82.67
74968;SHT30;63523;51.880;12.630;2023-03-19T17:05:50;12.77;82.94
74968;SHT30;63523;51.880;12.630;2023-03-19T17:08:16;12.73;83.28
74968;SHT30;63523;51.880;12.630;2023-03-19T17:10:47;12.69;83.37
74968;SHT30;63523;51.880;12.630;2023-03-19T17:13:20;12.63;83.47
74968;SHT30;63523;51.880;12.630;2023-03-19T17:15:47;12.61;83.27
74968;SHT30;63523;51.880;12.630;2023-03-19T17:18:18;12.59;82.74
74968;SHT30;63523;51.880;12.630;2023-03-19T17:20:54;12.59;82.90
74968;SHT30;63523;51.880;12.630;2023-03-19T17:23:20;12.56;83.01
74968;SHT30;63523;51.880;12.630;2023-03-19T17:25:52;12.56;82.63
74968;SHT30;63523;51.880;12.630;2023-03-19T17:28:18;12.53;82.54
74968;SHT30;63523;51.880;12.630;2023-03-19T17:30:43;12.53;82.88
74968;SHT30;63523;51.880;12.630;2023-03-19T17:33:24;12.49;83.06
74968;SHT30;63523;51.880;12.630;2023-03-19T17:35:51;12.46;83.35
74968;SHT30;63523;51.880;12.630;2023-03-19T17:38:18;12.45;83.37
74968;SHT30;63523;51.880;12.630;2023-03-19T17:40:44;12.40;83.35